KCVN/CVN METAR and TAF weather

Enter ICAO airport designator
Station Type Date Time Source
KCVN METAR 2018/12/10 19:56 UTC NOAA

KCVN 101956Z AUTO 23009KT 10SM CLR 13/M07 A3028 RMK AO2 SLP262 T01281067


Station Type Date Time Source
KCVN Decoded METAR 2018/12/10 19:56 UTC NOAA

Clovis, Clovis Municipal Airport, NM, United States (KCVN) 34-26N 103-05W
Dec 10, 2018 - 02:56 PM EST / 2018.12.10 1956 UTC
Wind: from the SW (230 degrees) at 10 MPH (9 KT):0
Visibility: 10 mile(s):0
Sky conditions: clear
Temperature: 55.0 F (12.8 C)
Dew Point: 19.9 F (-6.7 C)
Relative Humidity: 25%
Pressure (altimeter): 30.28 in. Hg (1025 hPa)
ob: KCVN 101956Z AUTO 23009KT 10SM CLR 13/M07 A3028 RMK AO2 SLP262 T01281067
cycle: 20

Station Type Date Time Source
KCVN TAF UTC NOAA

Error!


Example: see airport list